Time;durP1;ratioP1;P1;durP2;ratioP2;P2;SDS_P1;SDS_P2;PMS_P1;PMS_P2;Temp;Humidity;BMP_temperature;BMP_pressure;BME280_temperature;BME280_humidity;BME280_pressure;Samples;Min_cycle;Max_cycle;Signal;HPM_P1;HPM_P2
2024/01/09 00:00:14;;;;;;;69.60;39.90;;;;;;;-11.26;100.00;102507.14;109277;1273;22756;-77
2024/01/09 00:03:49;;;;;;;80.70;44.90;;;;;;;-11.30;100.00;102514.38;109266;1273;21970;-76
2024/01/09 00:06:32;;;;;;;76.40;44.80;;;;;;;-11.32;100.00;102510.84;109323;1273;21979;-77
2024/01/09 00:09:12;;;;;;;81.90;47.30;;;;;;;-11.48;100.00;102480.09;109288;1273;22453;-76
2024/01/09 00:11:51;;;;;;;74.80;44.50;;;;;;;-11.48;100.00;102478.96;109318;1273;21988;-77
2024/01/09 00:14:44;;;;;;;74.00;43.80;;;;;;;-11.33;100.00;102500.19;109321;1270;23434;-76
2024/01/09 00:17:35;;;;;;;73.50;44.20;;;;;;;-11.34;100.00;102501.60;109622;1264;23068;-75
2024/01/09 00:20:14;;;;;;;70.10;42.30;;;;;;;-11.36;100.00;102505.64;109734;1267;21979;-76
2024/01/09 00:22:48;;;;;;;69.90;41.10;;;;;;;-11.37;100.00;102506.44;109865;1267;22006;-76
2024/01/09 00:25:22;;;;;;;65.00;39.40;;;;;;;-11.39;100.00;102506.23;109869;1268;22000;-76
2024/01/09 00:27:57;;;;;;;67.20;40.40;;;;;;;-11.43;100.00;102509.73;109925;1267;21987;-75
2024/01/09 00:30:38;;;;;;;65.90;38.80;;;;;;;-11.44;100.00;102512.84;110037;1268;22777;-78
2024/01/09 00:33:20;;;;;;;70.80;39.80;;;;;;;-11.45;100.00;102512.91;109890;1267;22001;-76
2024/01/09 00:36:04;;;;;;;69.50;40.60;;;;;;;-11.47;100.00;102514.12;109748;1268;21992;-76
2024/01/09 00:39:01;;;;;;;70.50;40.80;;;;;;;-11.48;100.00;102515.20;110301;1264;22740;-76
2024/01/09 00:41:47;;;;;;;72.80;39.60;;;;;;;-11.48;100.00;102523.47;110216;1264;21981;-76
2024/01/09 00:44:49;;;;;;;81.60;43.90;;;;;;;-11.64;100.00;102503.81;110160;1263;23012;-75
2024/01/09 00:47:46;;;;;;;74.40;43.90;;;;;;;-11.51;100.00;102531.63;110276;1264;22006;-76
2024/01/09 00:50:32;;;;;;;87.40;51.30;;;;;;;-11.50;100.00;102530.46;110228;1263;21980;-77
2024/01/09 00:53:20;;;;;;;84.40;50.90;;;;;;;-11.49;100.00;102535.48;110185;1264;21972;-76
2024/01/09 00:55:56;;;;;;;83.00;46.60;;;;;;;-11.48;100.00;102538.94;110254;1264;21985;-77
2024/01/09 00:58:45;;;;;;;79.30;43.60;;;;;;;-11.47;100.00;102542.49;110084;1264;23625;-77
2024/01/09 01:01:38;;;;;;;81.10;43.50;;;;;;;-11.49;100.00;102541.98;109364;1272;22049;-77
2024/01/09 01:04:12;;;;;;;73.90;44.00;;;;;;;-11.56;100.00;102536.86;109297;1272;23696;-78
2024/01/09 01:06:47;;;;;;;83.00;43.90;;;;;;;-11.49;100.00;102551.89;109529;1272;22946;-76
2024/01/09 01:09:30;;;;;;;79.60;45.10;;;;;;;-11.50;100.00;102557.70;109099;1272;24332;-77
2024/01/09 01:12:06;;;;;;;78.00;45.60;;;;;;;-11.51;100.00;102557.15;109281;1272;22234;-76
2024/01/09 01:14:43;;;;;;;77.10;45.00;;;;;;;-11.51;100.00;102560.63;109324;1272;22520;-76
2024/01/09 01:17:36;;;;;;;77.90;45.90;;;;;;;-11.53;100.00;102564.70;109423;1271;23244;-77
2024/01/09 01:20:25;;;;;;;79.70;45.60;;;;;;;-11.54;100.00;102565.63;110047;1263;21939;-75
2024/01/09 01:22:59;;;;;;;71.00;43.20;;;;;;;-11.54;100.00;102564.44;110393;1263;22042;-75
2024/01/09 01:25:52;;;;;;;70.80;43.40;;;;;;;-11.55;100.00;102559.92;110095;1264;23125;-77
2024/01/09 01:28:28;;;;;;;73.70;45.60;;;;;;;-11.53;100.00;102563.70;110411;1251;21977;-74
2024/01/09 01:31:05;;;;;;;75.20;44.30;;;;;;;-11.52;100.00;102565.46;110125;1263;21982;-75
2024/01/09 01:34:08;;;;;;;74.60;45.10;;;;;;;-11.53;100.00;102562.52;110140;1264;22261;-75
2024/01/09 01:36:47;;;;;;;73.90;44.10;;;;;;;-11.54;100.00;102562.55;110447;1264;21986;-77
2024/01/09 01:39:37;;;;;;;67.00;42.10;;;;;;;-11.56;100.00;102563.58;110392;1263;22087;-76
2024/01/09 01:42:32;;;;;;;74.00;43.60;;;;;;;-11.56;100.00;102570.94;110226;1264;23611;-74
2024/01/09 01:45:20;;;;;;;68.70;39.00;;;;;;;-11.56;100.00;102574.14;110268;1264;21982;-76
2024/01/09 01:48:05;;;;;;;66.80;40.90;;;;;;;-11.58;100.00;102572.02;110397;1264;21979;-74
2024/01/09 01:51:14;;;;;;;67.40;40.10;;;;;;;-11.70;100.00;102557.38;110269;1264;21987;-75
2024/01/09 01:53:59;;;;;;;75.00;42.00;;;;;;;-11.64;100.00;102575.19;109821;1268;21982;-74
2024/01/09 01:56:52;;;;;;;66.20;39.90;;;;;;;-11.66;100.00;102572.95;109936;1268;21975;-76
2024/01/09 01:59:43;;;;;;;76.10;42.70;;;;;;;-11.67;100.00;102570.48;109397;1271;21995;-77
2024/01/09 02:02:17;;;;;;;77.40;43.90;;;;;;;-11.67;100.00;102573.52;109349;1271;23144;-75
2024/01/09 02:04:56;;;;;;;68.90;39.60;;;;;;;-11.74;100.00;102562.73;109374;1271;22025;-77
2024/01/09 02:07:39;;;;;;;68.70;40.60;;;;;;;-11.73;100.00;102558.23;109431;1271;22261;-75
2024/01/09 02:10:16;;;;;;;76.80;44.60;;;;;;;-11.66;100.00;102565.02;109664;1271;23055;-76
2024/01/09 02:13:12;;;;;;;67.00;41.20;;;;;;;-11.70;100.00;102562.86;109285;1267;313571;-77
2024/01/09 02:15:58;;;;;;;68.30;40.40;;;;;;;-11.72;100.00;102563.17;109348;1272;21984;-77
2024/01/09 02:18:46;;;;;;;67.80;40.30;;;;;;;-11.72;100.00;102560.66;109892;1268;21984;-76
2024/01/09 02:21:30;;;;;;;75.60;41.40;;;;;;;-11.71;100.00;102560.64;109900;1257;23022;-75
2024/01/09 02:24:00;;;;;;;68.10;42.70;;;;;;;-11.69;100.00;102557.95;109744;1268;21984;-76
2024/01/09 02:26:59;;;;;;;71.30;44.40;;;;;;;-11.69;100.00;102555.42;110022;1268;22536;-76
2024/01/09 02:29:49;;;;;;;71.80;43.20;;;;;;;-11.71;100.00;102550.83;109760;1268;24210;-76
2024/01/09 02:32:21;;;;;;;74.90;46.40;;;;;;;-11.73;100.00;102542.78;109992;1268;22677;-77
2024/01/09 02:35:07;;;;;;;74.80;45.30;;;;;;;-11.74;100.00;102546.17;110126;1264;22047;-75
2024/01/09 02:37:53;;;;;;;73.50;46.00;;;;;;;-11.75;100.00;102547.79;110443;1264;21955;-77
2024/01/09 02:40:41;;;;;;;72.00;45.00;;;;;;;-11.75;100.00;102547.48;110429;1264;22043;-78
2024/01/09 02:43:13;;;;;;;73.50;43.50;;;;;;;-11.75;100.00;102547.46;110296;1263;21971;-74
2024/01/09 02:45:48;;;;;;;68.20;43.20;;;;;;;-11.75;100.00;102546.78;110433;1264;22057;-78
2024/01/09 02:48:22;;;;;;;83.30;45.30;;;;;;;-11.75;100.00;102551.45;110270;1263;21986;-76
2024/01/09 02:51:07;;;;;;;81.00;44.30;;;;;;;-11.76;100.00;102553.66;110063;1264;23787;-77
2024/01/09 02:53:47;;;;;;;73.30;43.50;;;;;;;-11.75;100.00;102554.55;110449;1264;21969;-75
2024/01/09 02:56:23;;;;;;;69.60;44.10;;;;;;;-11.75;100.00;102555.03;110406;1263;21972;-75
2024/01/09 02:59:03;;;;;;;70.20;44.50;;;;;;;-11.75;100.00;102554.71;110539;1264;21988;-75
2024/01/09 03:01:47;;;;;;;75.50;44.30;;;;;;;-11.76;100.00;102554.94;110378;1264;23032;-77
2024/01/09 03:04:24;;;;;;;72.80;42.90;;;;;;;-11.77;100.00;102550.98;110350;1263;22040;-75
2024/01/09 03:07:00;;;;;;;66.90;43.80;;;;;;;-11.79;100.00;102552.52;110357;1264;23151;-75
2024/01/09 03:09:33;;;;;;;81.30;41.30;;;;;;;-11.80;100.00;102551.09;110529;1263;22565;-77
2024/01/09 03:12:05;;;;;;;69.60;42.80;;;;;;;-11.81;100.00;102557.02;110399;1263;22245;-75
2024/01/09 03:14:38;;;;;;;74.00;43.50;;;;;;;-11.84;100.00;102560.52;109951;1260;21998;-76
2024/01/09 03:17:08;;;;;;;80.60;45.50;;;;;;;-11.88;100.00;102560.86;109692;1267;22005;-75
2024/01/09 03:19:42;;;;;;;81.20;46.50;;;;;;;-11.89;100.00;102561.38;109394;1267;21975;-76
2024/01/09 03:22:22;;;;;;;80.50;46.80;;;;;;;-11.91;100.00;102560.87;109734;1267;21964;-76
2024/01/09 03:24:53;;;;;;;77.70;45.60;;;;;;;-11.94;100.00;102559.45;109909;1267;21972;-75
2024/01/09 03:27:33;;;;;;;83.80;47.60;;;;;;;-11.96;100.00;102554.21;109913;1267;21979;-78
2024/01/09 03:30:06;;;;;;;79.60;45.40;;;;;;;-11.96;100.00;102557.10;109326;1272;22094;-78
2024/01/09 03:32:38;;;;;;;80.90;45.80;;;;;;;-11.96;100.00;102560.60;109423;1272;22103;-78
2024/01/09 03:35:11;;;;;;;72.20;44.30;;;;;;;-11.94;100.00;102562.42;108830;1277;21986;-77
2024/01/09 03:37:47;;;;;;;80.00;46.40;;;;;;;-11.96;100.00;102561.42;108821;1277;22168;-77
2024/01/09 03:40:18;;;;;;;;;;;;;;;-12.01;100.00;102550.23;108814;1278;24245;-74
2024/01/09 03:42:48;;;;;;;71.50;41.40;;;;;;;-12.03;100.00;102553.83;108919;1277;21988;-76
2024/01/09 03:45:24;;;;;;;76.70;43.20;;;;;;;-12.05;100.00;102553.27;108899;1274;23699;-77
2024/01/09 03:48:04;;;;;;;71.80;43.50;;;;;;;-12.04;100.00;102554.70;109155;1269;23720;-76
2024/01/09 03:50:37;;;;;;;72.20;42.20;;;;;;;-12.03;100.00;102558.67;109621;1269;22047;-75
2024/01/09 03:53:23;;;;;;;69.20;42.80;;;;;;;-12.04;100.00;102560.48;109953;1264;21974;-76
2024/01/09 03:55:59;;;;;;;78.80;45.50;;;;;;;-12.03;100.00;102566.93;110055;1267;21981;-75
2024/01/09 03:58:33;;;;;;;86.90;46.60;;;;;;;-12.02;100.00;102567.19;109598;1270;22068;-76
2024/01/09 04:01:04;;;;;;;84.70;47.70;;;;;;;-12.00;100.00;102568.98;109410;1270;23035;-77
2024/01/09 04:03:41;;;;;;;75.60;45.40;;;;;;;-11.98;100.00;102571.05;109669;1270;22037;-77
2024/01/09 04:06:18;;;;;;;83.60;48.80;;;;;;;-11.95;100.00;102573.77;109610;1270;23065;-75
2024/01/09 04:08:49;;;;;;;81.80;48.00;;;;;;;-11.96;100.00;102572.23;109421;1270;21973;-76
2024/01/09 04:11:19;;;;;;;86.90;49.40;;;;;;;-11.94;100.00;102572.67;109343;1270;22104;-76
2024/01/09 04:13:57;;;;;;;74.50;45.00;;;;;;;-11.94;100.00;102568.52;109059;1273;23590;-77
2024/01/09 04:16:37;;;;;;;85.10;48.40;;;;;;;-11.94;100.00;102569.50;109331;1273;21954;-75
2024/01/09 04:19:12;;;;;;;79.20;45.80;;;;;;;-11.94;100.00;102571.54;109254;1273;21997;-76
2024/01/09 04:22:01;;;;;;;;;;;;;;;-11.94;100.00;102571.04;109273;1273;23653;-77
2024/01/09 04:24:50;;;;;;;;;;;;;;;-12.00;100.00;102570.48;109390;1271;21973;-77
2024/01/09 04:27:21;;;;;;;68.20;40.60;;;;;;;-12.08;100.00;102568.13;109346;1264;22520;-76
2024/01/09 04:30:00;;;;;;;74.20;41.80;;;;;;;-12.10;100.00;102566.10;109348;1271;22085;-76
2024/01/09 04:32:32;;;;;;;78.80;44.50;;;;;;;-12.08;100.00;102565.58;109917;1267;21988;-76
2024/01/09 04:35:11;;;;;;;83.60;46.30;;;;;;;-12.07;100.00;102570.72;110050;1267;23775;-75
2024/01/09 04:37:47;;;;;;;86.80;46.90;;;;;;;-12.08;100.00;102573.70;109770;1267;21976;-76
2024/01/09 04:40:23;;;;;;;79.40;46.80;;;;;;;-12.08;100.00;102576.69;110064;1267;22453;-78
2024/01/09 04:42:59;;;;;;;81.70;48.30;;;;;;;-12.06;100.00;102579.38;109909;1264;23737;-77
2024/01/09 04:45:42;;;;;;;72.20;42.80;;;;;;;-12.04;100.00;102582.23;110302;1264;22544;-77
2024/01/09 04:48:14;;;;;;;87.40;46.70;;;;;;;-12.03;100.00;102585.55;110126;1263;21976;-75
2024/01/09 04:50:53;;;;;;;82.90;47.30;;;;;;;-12.03;100.00;102586.76;110371;1263;23753;-75
2024/01/09 04:53:29;;;;;;;81.40;47.60;;;;;;;-12.02;100.00;102588.83;110318;1263;22981;-76
2024/01/09 04:56:13;;;;;;;83.20;51.50;;;;;;;-12.16;100.00;102569.29;110430;1264;23741;-77
2024/01/09 04:59:01;;;;;;;;;;;;;;;-12.03;100.00;102594.79;110460;1264;21968;-77
2024/01/09 05:01:39;;;;;;;73.60;44.10;;;;;;;-12.10;100.00;102600.16;110336;1263;23039;-77
2024/01/09 05:04:18;;;;;;;81.60;49.60;;;;;;;-12.14;100.00;102597.50;110082;1263;22250;-76
2024/01/09 05:06:59;;;;;;;86.70;46.70;;;;;;;-12.14;100.00;102599.00;110409;1263;22421;-75
2024/01/09 05:09:30;;;;;;;84.00;48.70;;;;;;;-12.12;100.00;102599.98;110393;1263;21982;-77
2024/01/09 05:12:09;;;;;;;83.50;47.90;;;;;;;-12.11;100.00;102598.40;110390;1263;23707;-78
2024/01/09 05:14:47;;;;;;;87.10;50.00;;;;;;;-12.10;100.00;102602.53;110402;1264;22934;-78
2024/01/09 05:17:39;;;;;;;84.30;46.00;;;;;;;-12.09;100.00;102603.98;110050;1264;21996;-77
2024/01/09 05:20:46;;;;;;;78.10;46.80;;;;;;;-12.08;100.00;102601.19;110288;1263;23026;-77
2024/01/09 05:27:14;;;;;;;73.60;45.00;;;;;;;-12.08;100.00;102605.92;108900;1276;22173;-78
2024/01/09 05:30:13;;;;;;;76.60;45.40;;;;;;;-12.08;100.00;102607.06;108676;1280;22758;-79
2024/01/09 05:32:52;;;;;;;81.40;47.40;;;;;;;-12.08;100.00;102608.77;108415;1285;22017;-76
2024/01/09 05:36:11;;;;;;;81.90;46.10;;;;;;;-12.07;100.00;102609.04;108329;1284;22057;-77
2024/01/09 05:38:54;;;;;;;80.00;47.40;;;;;;;-12.08;100.00;102609.45;107785;1290;22034;-77
2024/01/09 05:41:27;;;;;;;85.10;48.30;;;;;;;-12.07;100.00;102609.80;108122;1290;23628;-77
2024/01/09 05:44:22;;;;;;;105.00;54.30;;;;;;;-12.08;100.00;102608.60;107764;1290;24500;-79
2024/01/09 05:47:02;;;;;;;101.70;59.30;;;;;;;-12.07;100.00;102607.64;107717;1290;23631;-77
2024/01/09 05:53:50;;;;;;;113.60;53.40;;;;;;;-12.11;100.00;102602.98;108556;1282;22198;-77
2024/01/09 05:57:26;;;;;;;133.10;61.30;;;;;;;-12.17;100.00;102605.23;108657;1278;23625;-77
2024/01/09 06:00:42;;;;;;;162.70;68.10;;;;;;;-12.21;100.00;102604.80;108849;1276;23159;-77
2024/01/09 06:03:54;;;;;;;;;;;;;;;;;;;;;
2024/01/09 06:07:08;;;;;;;102.90;58.60;;;;;;;-12.26;100.00;102597.08;109624;1270;21991;-78
2024/01/09 06:09:45;;;;;;;104.70;60.10;;;;;;;-12.28;100.00;102594.23;109602;1270;22083;-78
2024/01/09 06:12:51;;;;;;;131.30;62.60;;;;;;;-12.28;100.00;102590.88;109376;1270;21957;-78
2024/01/09 06:16:31;;;;;;;160.90;72.10;;;;;;;-12.29;100.00;102590.28;110162;1263;22977;-78
2024/01/09 06:20:31;;;;;;;128.10;63.20;;;;;;;-12.48;100.00;102572.29;110154;1267;21998;-78
2024/01/09 06:24:12;;;;;;;;;;;;;;;;;;;;;
2024/01/09 06:28:18;;;;;;;126.90;61.80;;;;;;;-12.38;100.00;102596.65;109288;1272;23677;-78
2024/01/09 06:31:28;;;;;;;112.60;60.40;;;;;;;-12.54;100.00;102578.14;108937;1276;22885;-79
2024/01/09 06:34:25;;;;;;;138.00;64.70;;;;;;;-12.39;100.00;102604.99;108556;1281;22017;-79
2024/01/09 06:37:20;;;;;;;114.10;59.40;;;;;;;-12.39;100.00;102605.85;108561;1281;22008;-79
2024/01/09 06:40:05;;;;;;;119.00;62.80;;;;;;;-12.36;100.00;102614.14;108716;1280;22004;-78
2024/01/09 06:43:20;;;;;;;231.90;84.30;;;;;;;-12.34;100.00;102612.44;108739;1279;22168;-78
2024/01/09 06:51:30;;;;;;;;;;;;;;;;;;;;;
2024/01/09 06:55:00;;;;;;;116.90;64.50;;;;;;;-12.29;100.00;102615.90;108436;1285;23775;-77
2024/01/09 06:57:59;;;;;;;118.70;60.60;;;;;;;-12.29;100.00;102617.80;108439;1285;22007;-77
2024/01/09 07:00:47;;;;;;;124.30;66.90;;;;;;;-12.27;100.00;102622.14;108367;1285;23071;-76
2024/01/09 07:14:48;;;;;;;209.70;108.40;;;;;;;-10.44;100.00;102612.23;108080;1285;548080;-77
2024/01/09 07:18:42;;;;;;;172.50;84.50;;;;;;;-10.15;100.00;102613.78;108302;1262;2639799;-76
2024/01/09 07:22:23;;;;;;;227.10;100.60;;;;;;;-10.83;100.00;102618.05;109574;1269;23603;-77
2024/01/09 07:25:50;;;;;;;169.80;82.60;;;;;;;-11.11;100.00;102618.71;109012;1274;23842;-77
2024/01/09 07:30:18;;;;;;;169.10;85.20;;;;;;;-11.32;100.00;102619.76;108837;1278;21998;-78
2024/01/09 07:36:29;;;;;;;139.20;72.30;;;;;;;-11.82;100.00;102587.35;108282;1285;23472;-75
2024/01/09 07:39:54;;;;;;;;;;;;;;;;;;;;;
2024/01/09 07:44:11;;;;;;;;;;;;;;;;;;;;;
2024/01/09 07:47:24;;;;;;;128.90;68.20;;;;;;;-11.72;100.00;102631.08;108569;1284;22013;-77
2024/01/09 07:50:39;;;;;;;175.70;85.00;;;;;;;-11.68;100.00;102635.76;108042;1289;23759;-77
2024/01/09 07:53:48;;;;;;;174.80;85.90;;;;;;;-11.63;100.00;102634.57;108088;1289;22006;-77
2024/01/09 07:56:32;;;;;;;173.40;86.70;;;;;;;-11.59;100.00;102632.70;108169;1289;22004;-77
2024/01/09 07:59:35;;;;;;;183.00;88.60;;;;;;;-11.55;100.00;102632.09;108028;1289;23744;-77
2024/01/09 08:02:30;;;;;;;140.80;69.00;;;;;;;-11.48;100.00;102634.02;108138;1289;22517;-77
2024/01/09 08:05:24;;;;;;;158.70;78.30;;;;;;;-11.44;100.00;102631.16;108169;1286;21998;-76
2024/01/09 08:08:07;;;;;;;;;;;;;;;-11.40;100.00;102634.19;108484;1282;21987;-75
2024/01/09 08:11:05;;;;;;;219.00;87.00;;;;;;;-11.45;100.00;102637.30;108904;1276;21991;-76
2024/01/09 08:14:30;;;;;;;140.90;74.20;;;;;;;-11.37;100.00;102640.30;108928;1276;23864;-78
2024/01/09 08:17:33;;;;;;;161.70;79.20;;;;;;;-11.29;100.00;102644.11;108391;1285;21999;-76
2024/01/09 08:20:37;;;;;;;;;;;;;;;;;;;;;
2024/01/09 08:24:13;;;;;;;;;;;;;;;;;;;;;
2024/01/09 08:27:29;;;;;;;119.50;63.50;;;;;;;-10.90;100.00;102645.88;108400;1279;22061;-77
2024/01/09 08:34:28;;;;;;;126.70;66.60;;;;;;;-10.83;100.00;102655.94;108089;1289;22022;-76
2024/01/09 08:37:22;;;;;;;102.10;58.20;;;;;;;-10.74;100.00;102660.02;108081;1289;22277;-79
2024/01/09 08:40:41;;;;;;;96.30;52.90;;;;;;;-10.66;100.00;102659.37;108084;1289;22005;-75
2024/01/09 08:43:29;;;;;;;105.50;54.70;;;;;;;-10.57;100.00;102662.50;108068;1289;23865;-76
2024/01/09 08:46:14;;;;;;;101.90;56.00;;;;;;;-10.47;100.00;102666.39;108049;1289;22001;-77
2024/01/09 08:49:08;;;;;;;117.40;62.70;;;;;;;-10.41;100.00;102667.06;108390;1284;22039;-77
2024/01/09 08:51:55;;;;;;;114.80;59.70;;;;;;;-10.38;100.00;102670.67;108375;1283;22001;-77
2024/01/09 08:54:44;;;;;;;88.20;53.60;;;;;;;-10.32;100.00;102672.66;108396;1283;24092;-76
2024/01/09 08:57:27;;;;;;;102.80;58.20;;;;;;;-10.26;100.00;102676.86;108624;1277;21996;-77
2024/01/09 09:00:13;;;;;;;100.40;62.40;;;;;;;-10.14;100.00;102677.52;108768;1277;21996;-77
2024/01/09 09:03:00;;;;;;;111.10;66.80;;;;;;;-10.02;100.00;102675.65;108734;1266;22001;-77
2024/01/09 09:06:26;;;;;;;116.70;63.90;;;;;;;-9.92;100.00;102670.56;108863;1278;22002;-79
2024/01/09 09:08:55;;;;;;;114.70;61.80;;;;;;;-9.89;100.00;102668.29;109235;1273;22202;-79
2024/01/09 09:11:49;;;;;;;95.10;56.20;;;;;;;-9.83;100.00;102670.95;109796;1266;22719;-80
2024/01/09 09:15:17;;;;;;;95.40;56.40;;;;;;;-9.72;100.00;102668.89;110140;1266;23592;-78
2024/01/09 09:17:57;;;;;;;101.50;61.20;;;;;;;-9.57;100.00;102669.75;109412;1271;23602;-80
2024/01/09 09:20:42;;;;;;;102.00;57.20;;;;;;;-9.47;100.00;102670.69;109572;1268;21965;-78
2024/01/09 09:23:19;;;;;;;105.40;59.70;;;;;;;-9.34;100.00;102670.05;109363;1271;22191;-77
2024/01/09 09:26:12;;;;;;;124.50;62.10;;;;;;;-9.21;100.00;102669.86;109337;1271;23712;-78
2024/01/09 09:29:03;;;;;;;114.70;62.60;;;;;;;-9.09;100.00;102669.17;109436;1271;22049;-81
2024/01/09 09:32:19;;;;;;;102.80;54.90;;;;;;;-9.02;100.00;102666.61;109492;1272;22047;-80
2024/01/09 09:35:05;;;;;;;104.40;55.00;;;;;;;-8.92;100.00;102662.85;109820;1271;21977;-81
2024/01/09 09:37:54;;;;;;;99.60;58.20;;;;;;;-8.79;100.00;102656.98;109844;1272;22135;-81
2024/01/09 09:40:35;;;;;;;136.00;73.10;;;;;;;-8.62;100.00;102650.83;109721;1272;22022;-80
2024/01/09 09:43:18;;;;;;;116.00;68.60;;;;;;;-8.50;100.00;102646.02;109793;1272;22731;-79
2024/01/09 09:46:02;;;;;;;120.30;68.50;;;;;;;-8.31;100.00;102647.30;109360;1271;22031;-80
2024/01/09 09:48:51;;;;;;;121.30;67.20;;;;;;;-8.04;100.00;102647.42;109438;1273;24137;-80
2024/01/09 09:51:53;;;;;;;110.20;65.80;;;;;;;-7.71;100.00;102648.33;109018;1278;21992;-82
2024/01/09 09:54:29;;;;;;;143.80;80.20;;;;;;;-7.42;100.00;102645.52;109075;1278;23702;-80
2024/01/09 09:57:03;;;;;;;119.10;70.90;;;;;;;-7.13;100.00;102635.89;109044;1278;21994;-80
2024/01/09 09:59:52;;;;;;;111.10;67.90;;;;;;;-6.93;100.00;102640.38;109083;1279;21998;-81
2024/01/09 10:02:53;;;;;;;118.10;69.50;;;;;;;-6.75;100.00;102640.03;109104;1278;22002;-80
2024/01/09 10:05:38;;;;;;;;;;;;;;;;;;;;;
2024/01/09 10:09:06;;;;;;;107.80;64.70;;;;;;;-6.42;100.00;102635.89;108703;1282;21992;-81
2024/01/09 10:12:58;;;;;;;;;;;;;;;;;;;;;
2024/01/09 10:16:03;;;;;;;114.30;67.80;;;;;;;-5.99;100.00;102632.99;108973;1279;23612;-81
2024/01/09 10:18:57;;;;;;;116.50;67.90;;;;;;;-5.81;100.00;102629.21;108511;1284;22016;-80
2024/01/09 10:22:08;;;;;;;121.40;70.80;;;;;;;-5.78;100.00;102630.27;108173;1290;22096;-82
2024/01/09 10:25:34;;;;;;;115.20;69.10;;;;;;;-5.80;100.00;102626.21;108328;1290;22010;-79
2024/01/09 10:28:42;;;;;;;114.80;69.80;;;;;;;-5.84;100.00;102622.25;108156;1290;22012;-80
2024/01/09 10:32:30;;;;;;;126.10;72.10;;;;;;;-5.71;100.00;102623.08;107929;1294;22623;-79
2024/01/09 10:35:59;;;;;;;135.10;67.00;;;;;;;-5.50;100.00;102622.42;107834;1292;23005;-80
2024/01/09 10:39:35;;;;;;;120.70;66.70;;;;;;;-5.32;100.00;102618.60;108212;1287;23641;-80
2024/01/09 10:43:37;;;;;;;109.80;69.00;;;;;;;-5.13;100.00;102613.16;108531;1287;22117;-79
2024/01/09 10:46:42;;;;;;;119.70;73.80;;;;;;;-5.02;100.00;102608.39;108321;1285;23679;-78
2024/01/09 10:50:22;;;;;;;120.90;73.10;;;;;;;-4.96;100.00;102608.10;108465;1280;22058;-82
2024/01/09 10:54:31;;;;;;;111.40;69.40;;;;;;;-4.94;100.00;102586.33;108783;1283;22017;-81
2024/01/09 10:58:31;;;;;;;103.10;64.20;;;;;;;-4.80;100.00;102595.70;108685;1284;23084;-78
2024/01/09 11:02:25;;;;;;;101.10;60.50;;;;;;;-4.73;100.00;102591.69;108658;1283;23073;-80
2024/01/09 11:09:03;;;;;;;101.90;59.80;;;;;;;-4.63;100.00;102583.92;108864;1281;21989;-78
2024/01/09 11:15:55;;;;;;;96.40;54.80;;;;;;;-4.47;100.00;102578.09;108265;1291;22031;-79
2024/01/09 11:19:11;;;;;;;91.90;59.00;;;;;;;-4.44;100.00;102575.92;108184;1291;21999;-79
2024/01/09 11:22:26;;;;;;;94.80;55.70;;;;;;;-4.62;100.00;102544.60;108297;1287;22025;-78
2024/01/09 11:25:54;;;;;;;88.90;54.80;;;;;;;-4.53;100.00;102567.05;108669;1283;22000;-79
2024/01/09 11:29:20;;;;;;;;;;;;;;;;;;;;;
2024/01/09 11:33:49;;;;;;;71.40;45.90;;;;;;;-4.56;100.00;102557.34;109085;1277;23749;-80
2024/01/09 11:37:27;;;;;;;67.70;41.40;;;;;;;-4.65;100.00;102560.56;108879;1279;22020;-79
2024/01/09 11:41:30;;;;;;;56.40;37.10;;;;;;;-4.85;100.00;102561.55;109218;1278;23628;-81
2024/01/09 11:45:46;;;;;;;65.70;38.60;;;;;;;-4.96;100.00;102557.49;109170;1274;22443;-83
2024/01/09 11:49:58;;;;;;;67.10;41.60;;;;;;;-5.03;100.00;102541.14;109176;1279;23081;-79
2024/01/09 11:53:20;;;;;;;58.20;39.00;;;;;;;-4.92;100.00;102560.46;109651;1273;21994;-80
2024/01/09 11:57:24;;;;;;;54.00;34.10;;;;;;;-4.99;100.00;102537.77;109646;1273;22009;-81
2024/01/09 12:00:55;;;;;;;;;;;;;;;;;;;;;
2024/01/09 12:04:27;;;;;;;68.50;43.10;;;;;;;-4.80;100.00;102557.45;109878;1273;22994;-80
2024/01/09 12:11:37;;;;;;;69.80;47.20;;;;;;;-4.74;100.00;102552.07;109770;1273;23163;-80
2024/01/09 12:15:35;;;;;;;67.50;42.80;;;;;;;-4.69;100.00;102551.66;109096;1277;21996;-80
2024/01/09 12:19:05;;;;;;;65.40;42.10;;;;;;;-4.68;100.00;102551.20;109165;1277;22985;-79
2024/01/09 12:22:50;;;;;;;63.90;40.40;;;;;;;-4.63;100.00;102553.52;108952;1277;24319;-75
2024/01/09 12:26:44;;;;;;;70.30;40.80;;;;;;;-4.59;100.00;102551.40;108687;1277;22160;-78
2024/01/09 12:30:11;;;;;;;65.90;43.20;;;;;;;-4.57;100.00;102551.83;108799;1277;23960;-79
2024/01/09 12:33:36;;;;;;;;;;;;;;;;;;;;;
2024/01/09 12:36:27;;;;;;;68.00;42.10;;;;;;;-4.64;100.00;102554.17;109199;1273;23010;-78
2024/01/09 12:43:19;;;;;;;77.90;45.10;;;;;;;-4.94;100.00;102525.00;108522;1281;22622;-80
2024/01/09 12:46:55;;;;;;;76.80;45.70;;;;;;;-4.76;100.00;102554.84;108213;1290;23091;-79
2024/01/09 12:50:33;;;;;;;79.50;50.10;;;;;;;-4.84;100.00;102545.50;107533;1291;23085;-79
2024/01/09 12:53:39;;;;;;;79.00;48.30;;;;;;;-4.73;100.00;102562.47;106850;1296;24436;-80
2024/01/09 13:00:35;;;;;;;81.30;50.10;;;;;;;-4.71;100.00;102565.11;107571;1295;22034;-79
2024/01/09 13:03:22;;;;;;;;;;;;;;;;;;;;;
2024/01/09 13:06:06;;;;;;;;;;;;;;;;;;;;;
2024/01/09 13:09:56;;;;;;;82.00;53.30;;;;;;;-4.70;100.00;102556.88;108477;1285;23167;-80
2024/01/09 13:12:59;;;;;;;84.50;52.70;;;;;;;-4.72;100.00;102557.09;107995;1289;22015;-80
2024/01/09 13:16:26;;;;;;;;;;;;;;;;;;;;;
2024/01/09 13:20:07;;;;;;;77.90;46.70;;;;;;;-4.76;100.00;102552.80;107704;1291;22066;-80
2024/01/09 13:23:44;;;;;;;;;;;;;;;;;;;;;
2024/01/09 13:27:29;;;;;;;80.10;51.00;;;;;;;-4.73;100.00;102543.27;107395;1296;22070;-80
2024/01/09 13:31:24;;;;;;;85.20;51.50;;;;;;;-4.75;100.00;102542.84;107546;1297;22028;-78
2024/01/09 13:34:37;;;;;;;87.90;52.70;;;;;;;-4.72;100.00;102541.77;107558;1297;22273;-80
2024/01/09 13:37:55;;;;;;;;;;;;;;;;;;;;;
2024/01/09 13:41:07;;;;;;;76.20;50.20;;;;;;;-4.71;100.00;102543.92;107154;1298;23801;-79
2024/01/09 13:44:01;;;;;;;82.60;50.50;;;;;;;-4.75;100.00;102540.58;107397;1297;22025;-80
2024/01/09 13:47:19;;;;;;;95.10;61.70;;;;;;;-4.78;100.00;102537.35;107436;1293;22556;-80
2024/01/09 13:50:31;;;;;;;64.90;43.40;;;;;;;-4.77;100.00;102535.68;107677;1292;22035;-78
2024/01/09 13:53:59;;;;;;;;;;;;;;;;;;;;;
2024/01/09 13:57:16;;;;;;;79.00;45.00;;;;;;;-4.75;100.00;102535.99;108316;1288;23660;-79
2024/01/09 14:00:16;;;;;;;88.20;52.10;;;;;;;-4.75;100.00;102534.80;108152;1288;22057;-81
2024/01/09 14:03:56;;;;;;;119.90;73.00;;;;;;;-4.77;100.00;102536.41;108052;1288;23109;-79
2024/01/09 14:07:34;;;;;;;92.00;57.80;;;;;;;-4.80;100.00;102533.81;108371;1288;23666;-79
2024/01/09 14:10:51;;;;;;;69.90;41.00;;;;;;;-4.84;100.00;102527.83;107598;1295;22074;-80
2024/01/09 14:14:18;;;;;;;72.80;45.20;;;;;;;-4.84;100.00;102525.27;107666;1291;23127;-80
2024/01/09 14:17:40;;;;;;;;;;;;;;;;;;;;;
2024/01/09 14:20:24;;;;;;;54.70;35.40;;;;;;;-4.93;100.00;102521.02;106922;1300;22370;-79
2024/01/09 14:23:12;;;;;;;74.90;46.30;;;;;;;-4.87;100.00;102523.90;106755;1300;22036;-78
2024/01/09 14:25:57;;;;;;;65.00;42.30;;;;;;;-4.87;100.00;102517.98;106710;1300;22017;-78
2024/01/09 14:28:41;;;;;;;89.10;55.50;;;;;;;-4.88;100.00;102521.15;107216;1297;22010;-78
2024/01/09 14:31:30;;;;;;;81.60;47.00;;;;;;;-4.88;100.00;102514.33;107285;1297;22010;-79